Aviation Digital Data Service (ADDS)

Output produced by METARs form (1026 UTC 19 February 2019)
found at http://www.aviationweather.gov/metar/data/
 
METAR text: RJTU 190350Z 20005KT 9999 -RA FEW040 BKN090 OVC180 10/00 Q1022 RMK 1SC040 6AC090 8AC180 A3018 P/FR
Conditions at: RJTU (UTSUNOMIYA (JGSD, JP) observed 0350 UTC 19 February 2019
Temperature: 10.0°C (50°F)
Dewpoint: 0.0°C (32°F) [RH = 50%]
Pressure (altimeter): 30.18 inches Hg (1022.0 mb)
Winds: from the SSW (200 degrees) at 6 MPH (5 knots; 2.6 m/s)
Visibility: 6 or more miles (10+ km)
Ceiling: 9000 feet AGL
Clouds: few clouds at 4000 feet AGL
broken clouds at 9000 feet AGL
overcast cloud deck at 18000 feet AGL
Weather: -RA  (light rain)

METAR text: RJTU 182241Z VRB02KT 9999 FEW025 SCT035 BKN120 06/M03 Q1027 RMK 1SC025 3SC035 7AC120 A3033
Conditions at: RJTU (UTSUNOMIYA (JGSD, JP) observed 2241 UTC 18 February 2019
Temperature: 6.0°C (43°F)
Dewpoint: -3.0°C (27°F) [RH = 52%]
Pressure (altimeter): 30.32 inches Hg (1027.0 mb)
Winds: variable direction winds at 2 MPH (2 knots; 1.0 m/s)
Visibility: 6 or more miles (10+ km)
Ceiling: 12000 feet AGL
Clouds: few clouds at 2500 feet AGL
scattered clouds at 3500 feet AGL
broken clouds at 12000 feet AGL
Weather: no significant weather observed at this time